Monte-Carlo, Monaco
Current Conditions -  °F | °C
As of 12:30 PM on Sunday 25 Jan 2015 (Local Time) from LFMN Reporting Station
Few Clouds Few Clouds  
Wind Chill: 52°   Ceiling: Unl
Heat Index: 52°   Visibility: 6mi
Dew Point: 28°   Wind: 10mph
Humidity: 41%   Direction: 320°NW
Pressure: 30"   Gusts: NA
Location:  43.75°N, 7.42°E
Report Text: LFMN 251030Z 32009KT 9999 FEW073 11/M02 Q1016 NOSIG
Loading
Personal Weather Stations






























Interactive Weather Map New forecast layout! Learn more

10-Day Weather Forecast

Advertisements
Track Severe Weather on mobile